KANQ/ANQ METAR and TAF weather

Enter ICAO airport designator
Station Type Date Time Source
KANQ METAR 2020/02/21 13:55 UTC NOAA

KANQ 211355Z AUTO 26007KT 10SM CLR M08/M13 A3056 RMK AO2


Station Type Date Time Source
KANQ Decoded METAR 2020/02/21 13:55 UTC NOAA

Station name not available
Feb 21, 2020 - 08:55 AM EST / 2020.02.21 1355 UTC
Wind: from the W (260 degrees) at 8 MPH (7 KT):0
Visibility: 10 mile(s):0
Sky conditions: clear
Temperature: 17 F (-8 C)
Windchill: 6 F (-14 C):1
Dew Point: 8 F (-13 C)
Relative Humidity: 67%
Pressure (altimeter): 30.56 in. Hg (1034 hPa)
ob: KANQ 211355Z AUTO 26007KT 10SM CLR M08/M13 A3056 RMK AO2
cycle: 14

Station Type Date Time Source
KANQ TAF UTC NOAA

Error!

Example: see airport list